sensor_id;sensor_type;location;lat;lon;timestamp;temperature;humidity
20384;DHT22;46458;50.966;7.002;2022-08-05T00:00:36;25.20;99.90
20384;DHT22;46458;50.966;7.002;2022-08-05T00:03:08;24.50;99.90
20384;DHT22;46458;50.966;7.002;2022-08-05T00:05:36;24.90;99.90
20384;DHT22;46458;50.966;7.002;2022-08-05T00:08:08;24.90;99.90
20384;DHT22;46458;50.966;7.002;2022-08-05T00:10:37;24.90;99.90
20384;DHT22;46458;50.966;7.002;2022-08-05T00:13:05;25.10;99.90
20384;DHT22;46458;50.966;7.002;2022-08-05T00:15:34;25.20;99.90
20384;DHT22;46458;50.966;7.002;2022-08-05T00:18:18;24.90;99.90
20384;DHT22;46458;50.966;7.002;2022-08-05T00:20:47;24.90;99.90
20384;DHT22;46458;50.966;7.002;2022-08-05T00:23:16;25.10;99.90
20384;DHT22;46458;50.966;7.002;2022-08-05T00:25:44;24.90;99.90
20384;DHT22;46458;50.966;7.002;2022-08-05T00:28:14;25.10;99.90
20384;DHT22;46458;50.966;7.002;2022-08-05T00:30:45;24.80;99.90
20384;DHT22;46458;50.966;7.002;2022-08-05T00:33:17;24.90;99.90
20384;DHT22;46458;50.966;7.002;2022-08-05T00:35:46;24.80;99.90
20384;DHT22;46458;50.966;7.002;2022-08-05T00:38:15;25.00;99.90
20384;DHT22;46458;50.966;7.002;2022-08-05T00:40:48;25.10;99.90
20384;DHT22;46458;50.966;7.002;2022-08-05T00:43:17;24.80;99.90
20384;DHT22;46458;50.966;7.002;2022-08-05T00:45:47;24.90;99.90
20384;DHT22;46458;50.966;7.002;2022-08-05T00:48:19;24.80;99.90
20384;DHT22;46458;50.966;7.002;2022-08-05T00:50:50;25.00;99.90
20384;DHT22;46458;50.966;7.002;2022-08-05T00:53:21;24.70;99.90
20384;DHT22;46458;50.966;7.002;2022-08-05T00:55:50;24.90;99.90
20384;DHT22;46458;50.966;7.002;2022-08-05T00:58:19;24.90;99.90
20384;DHT22;46458;50.966;7.002;2022-08-05T01:00:50;24.60;99.90
20384;DHT22;46458;50.966;7.002;2022-08-05T01:03:22;24.80;99.90
20384;DHT22;46458;50.966;7.002;2022-08-05T01:05:54;24.60;99.90
20384;DHT22;46458;50.966;7.002;2022-08-05T01:08:29;24.70;99.90
20384;DHT22;46458;50.966;7.002;2022-08-05T01:11:01;24.70;99.90
20384;DHT22;46458;50.966;7.002;2022-08-05T01:13:36;24.60;99.90
20384;DHT22;46458;50.966;7.002;2022-08-05T01:16:13;24.60;99.90
20384;DHT22;46458;50.966;7.002;2022-08-05T01:18:51;24.50;99.90
20384;DHT22;46458;50.966;7.002;2022-08-05T01:21:51;24.50;99.90
20384;DHT22;46458;50.966;7.002;2022-08-05T01:24:43;24.50;99.90
20384;DHT22;46458;50.966;7.002;2022-08-05T01:27:28;23.90;99.90
20384;DHT22;46458;50.966;7.002;2022-08-05T01:30:04;24.50;99.90
20384;DHT22;46458;50.966;7.002;2022-08-05T01:32:35;24.50;99.90
20384;DHT22;46458;50.966;7.002;2022-08-05T01:35:12;24.50;99.90
20384;DHT22;46458;50.966;7.002;2022-08-05T01:37:45;24.40;99.90
20384;DHT22;46458;50.966;7.002;2022-08-05T01:40:16;24.40;99.90
20384;DHT22;46458;50.966;7.002;2022-08-05T01:42:47;24.40;99.90
20384;DHT22;46458;50.966;7.002;2022-08-05T01:45:20;25.00;99.90
20384;DHT22;46458;50.966;7.002;2022-08-05T01:47:53;24.50;99.90
20384;DHT22;46458;50.966;7.002;2022-08-05T01:50:25;24.30;99.90
20384;DHT22;46458;50.966;7.002;2022-08-05T01:52:59;24.40;99.90
20384;DHT22;46458;50.966;7.002;2022-08-05T01:55:31;24.30;99.90
20384;DHT22;46458;50.966;7.002;2022-08-05T01:58:02;24.20;99.90
20384;DHT22;46458;50.966;7.002;2022-08-05T02:00:36;24.50;99.90
20384;DHT22;46458;50.966;7.002;2022-08-05T02:03:09;24.10;99.90
20384;DHT22;46458;50.966;7.002;2022-08-05T02:05:39;24.10;99.90
20384;DHT22;46458;50.966;7.002;2022-08-05T02:08:09;24.30;99.90
20384;DHT22;46458;50.966;7.002;2022-08-05T02:10:42;24.00;99.90
20384;DHT22;46458;50.966;7.002;2022-08-05T02:13:15;24.20;99.90
20384;DHT22;46458;50.966;7.002;2022-08-05T02:15:52;24.30;99.90
20384;DHT22;46458;50.966;7.002;2022-08-05T02:18:26;23.90;99.90
20384;DHT22;46458;50.966;7.002;2022-08-05T02:21:02;24.60;99.90
20384;DHT22;46458;50.966;7.002;2022-08-05T02:23:37;24.10;99.90
20384;DHT22;46458;50.966;7.002;2022-08-05T02:26:09;23.80;99.90
20384;DHT22;46458;50.966;7.002;2022-08-05T02:28:42;23.80;99.90
20384;DHT22;46458;50.966;7.002;2022-08-05T02:31:16;23.90;99.90
20384;DHT22;46458;50.966;7.002;2022-08-05T02:33:50;23.60;99.90
20384;DHT22;46458;50.966;7.002;2022-08-05T02:36:21;24.00;99.90
20384;DHT22;46458;50.966;7.002;2022-08-05T02:38:51;24.00;99.90
20384;DHT22;46458;50.966;7.002;2022-08-05T02:41:24;23.40;99.90
20384;DHT22;46458;50.966;7.002;2022-08-05T02:43:54;23.30;99.90
20384;DHT22;46458;50.966;7.002;2022-08-05T02:46:27;23.30;99.90
20384;DHT22;46458;50.966;7.002;2022-08-05T02:48:57;23.40;99.90
20384;DHT22;46458;50.966;7.002;2022-08-05T02:51:27;23.00;99.90
20384;DHT22;46458;50.966;7.002;2022-08-05T02:54:00;23.20;99.90
20384;DHT22;46458;50.966;7.002;2022-08-05T02:56:32;23.20;99.90
20384;DHT22;46458;50.966;7.002;2022-08-05T02:59:03;22.90;99.90
20384;DHT22;46458;50.966;7.002;2022-08-05T03:01:37;22.80;99.90
20384;DHT22;46458;50.966;7.002;2022-08-05T03:04:10;22.70;99.90
20384;DHT22;46458;50.966;7.002;2022-08-05T03:06:42;22.70;99.90
20384;DHT22;46458;50.966;7.002;2022-08-05T03:09:14;22.60;99.90
20384;DHT22;46458;50.966;7.002;2022-08-05T03:11:43;22.70;99.90
20384;DHT22;46458;50.966;7.002;2022-08-05T03:14:17;22.90;99.90
20384;DHT22;46458;50.966;7.002;2022-08-05T03:16:51;22.60;99.90
20384;DHT22;46458;50.966;7.002;2022-08-05T03:19:20;22.60;99.90
20384;DHT22;46458;50.966;7.002;2022-08-05T03:21:48;22.80;99.90
20384;DHT22;46458;50.966;7.002;2022-08-05T03:24:19;22.70;99.90
20384;DHT22;46458;50.966;7.002;2022-08-05T03:26:48;22.80;99.90
20384;DHT22;46458;50.966;7.002;2022-08-05T03:29:17;22.70;99.90
20384;DHT22;46458;50.966;7.002;2022-08-05T03:31:49;22.30;99.90
20384;DHT22;46458;50.966;7.002;2022-08-05T03:34:21;22.50;99.90
20384;DHT22;46458;50.966;7.002;2022-08-05T03:36:50;22.80;99.90
20384;DHT22;46458;50.966;7.002;2022-08-05T03:39:19;22.40;99.90
20384;DHT22;46458;50.966;7.002;2022-08-05T03:41:51;22.70;99.90
20384;DHT22;46458;50.966;7.002;2022-08-05T03:44:20;22.40;99.90
20384;DHT22;46458;50.966;7.002;2022-08-05T03:46:51;22.90;99.90
20384;DHT22;46458;50.966;7.002;2022-08-05T03:49:20;22.50;99.90
20384;DHT22;46458;50.966;7.002;2022-08-05T03:51:53;22.90;99.90
20384;DHT22;46458;50.966;7.002;2022-08-05T03:54:30;22.50;99.90
20384;DHT22;46458;50.966;7.002;2022-08-05T03:57:01;22.40;99.90
20384;DHT22;46458;50.966;7.002;2022-08-05T03:59:34;22.90;99.90
20384;DHT22;46458;50.966;7.002;2022-08-05T04:02:09;22.40;99.90
20384;DHT22;46458;50.966;7.002;2022-08-05T04:04:40;22.60;99.90
20384;DHT22;46458;50.966;7.002;2022-08-05T04:07:10;22.50;99.90
20384;DHT22;46458;50.966;7.002;2022-08-05T04:09:39;22.50;99.90
20384;DHT22;46458;50.966;7.002;2022-08-05T04:12:08;22.40;99.90
20384;DHT22;46458;50.966;7.002;2022-08-05T04:14:39;22.40;99.90
20384;DHT22;46458;50.966;7.002;2022-08-05T04:17:11;22.40;99.90
20384;DHT22;46458;50.966;7.002;2022-08-05T04:19:41;22.40;99.90
20384;DHT22;46458;50.966;7.002;2022-08-05T04:22:11;22.40;99.90
20384;DHT22;46458;50.966;7.002;2022-08-05T04:24:41;22.70;99.90
20384;DHT22;46458;50.966;7.002;2022-08-05T04:27:11;22.40;99.90
20384;DHT22;46458;50.966;7.002;2022-08-05T04:29:41;22.50;99.90
20384;DHT22;46458;50.966;7.002;2022-08-05T04:32:14;22.30;99.90
20384;DHT22;46458;50.966;7.002;2022-08-05T04:34:43;22.20;99.90
20384;DHT22;46458;50.966;7.002;2022-08-05T04:37:12;22.20;99.90
20384;DHT22;46458;50.966;7.002;2022-08-05T04:39:41;22.30;99.90
20384;DHT22;46458;50.966;7.002;2022-08-05T04:42:13;22.80;99.90
20384;DHT22;46458;50.966;7.002;2022-08-05T04:44:42;22.30;99.90
20384;DHT22;46458;50.966;7.002;2022-08-05T04:47:15;22.40;99.90
20384;DHT22;46458;50.966;7.002;2022-08-05T04:49:43;22.40;99.90
20384;DHT22;46458;50.966;7.002;2022-08-05T04:52:13;22.40;99.90
20384;DHT22;46458;50.966;7.002;2022-08-05T04:54:44;22.50;99.90
20384;DHT22;46458;50.966;7.002;2022-08-05T04:57:16;22.60;99.90
20384;DHT22;46458;50.966;7.002;2022-08-05T04:59:44;22.30;99.90
20384;DHT22;46458;50.966;7.002;2022-08-05T05:02:17;22.50;99.90
20384;DHT22;46458;50.966;7.002;2022-08-05T05:04:46;22.50;99.90
20384;DHT22;46458;50.966;7.002;2022-08-05T05:07:16;22.60;99.90
20384;DHT22;46458;50.966;7.002;2022-08-05T05:09:45;22.50;99.90
20384;DHT22;46458;50.966;7.002;2022-08-05T05:12:14;22.20;99.90
20384;DHT22;46458;50.966;7.002;2022-08-05T05:14:43;22.20;99.90
20384;DHT22;46458;50.966;7.002;2022-08-05T05:17:12;22.10;99.90
20384;DHT22;46458;50.966;7.002;2022-08-05T05:19:43;22.20;99.90
20384;DHT22;46458;50.966;7.002;2022-08-05T05:22:12;22.10;99.90
20384;DHT22;46458;50.966;7.002;2022-08-05T05:24:41;22.60;99.90
20384;DHT22;46458;50.966;7.002;2022-08-05T05:27:10;22.10;99.90
20384;DHT22;46458;50.966;7.002;2022-08-05T05:29:44;22.00;99.90
20384;DHT22;46458;50.966;7.002;2022-08-05T05:32:13;22.00;99.90
20384;DHT22;46458;50.966;7.002;2022-08-05T05:34:46;22.00;99.90
20384;DHT22;46458;50.966;7.002;2022-08-05T05:37:20;22.40;99.90
20384;DHT22;46458;50.966;7.002;2022-08-05T05:39:49;22.20;99.90
20384;DHT22;46458;50.966;7.002;2022-08-05T05:42:20;22.10;99.90
20384;DHT22;46458;50.966;7.002;2022-08-05T05:44:49;22.00;99.90
20384;DHT22;46458;50.966;7.002;2022-08-05T05:47:18;22.00;99.90
20384;DHT22;46458;50.966;7.002;2022-08-05T05:49:50;22.10;99.90
20384;DHT22;46458;50.966;7.002;2022-08-05T05:52:18;22.30;99.90
20384;DHT22;46458;50.966;7.002;2022-08-05T05:54:47;22.30;99.90
20384;DHT22;46458;50.966;7.002;2022-08-05T05:57:16;22.40;99.90
20384;DHT22;46458;50.966;7.002;2022-08-05T05:59:45;22.10;99.90
20384;DHT22;46458;50.966;7.002;2022-08-05T06:02:20;22.10;99.90
20384;DHT22;46458;50.966;7.002;2022-08-05T06:04:52;22.20;99.90
20384;DHT22;46458;50.966;7.002;2022-08-05T06:07:21;22.20;99.90
20384;DHT22;46458;50.966;7.002;2022-08-05T06:09:50;22.40;99.90
20384;DHT22;46458;50.966;7.002;2022-08-05T06:12:19;22.20;99.90
20384;DHT22;46458;50.966;7.002;2022-08-05T06:14:47;22.40;99.90
20384;DHT22;46458;50.966;7.002;2022-08-05T06:17:17;22.20;99.90
20384;DHT22;46458;50.966;7.002;2022-08-05T06:19:48;22.50;99.90
20384;DHT22;46458;50.966;7.002;2022-08-05T06:22:26;23.70;99.90
20384;DHT22;46458;50.966;7.002;2022-08-05T06:24:56;22.40;99.90
20384;DHT22;46458;50.966;7.002;2022-08-05T06:27:28;22.30;99.90
20384;DHT22;46458;50.966;7.002;2022-08-05T06:29:59;22.70;99.90
20384;DHT22;46458;50.966;7.002;2022-08-05T06:32:28;22.30;99.90
20384;DHT22;46458;50.966;7.002;2022-08-05T06:34:57;22.50;99.90
20384;DHT22;46458;50.966;7.002;2022-08-05T06:37:32;22.60;99.90
20384;DHT22;46458;50.966;7.002;2022-08-05T06:40:00;22.50;99.90
20384;DHT22;46458;50.966;7.002;2022-08-05T06:42:29;22.30;99.90
20384;DHT22;46458;50.966;7.002;2022-08-05T06:44:58;22.60;99.90
20384;DHT22;46458;50.966;7.002;2022-08-05T06:47:32;22.50;99.90
20384;DHT22;46458;50.966;7.002;2022-08-05T06:50:01;22.60;99.90
20384;DHT22;46458;50.966;7.002;2022-08-05T06:52:33;22.30;99.90
20384;DHT22;46458;50.966;7.002;2022-08-05T06:55:03;22.30;99.90
20384;DHT22;46458;50.966;7.002;2022-08-05T06:57:37;22.40;99.90
20384;DHT22;46458;50.966;7.002;2022-08-05T07:00:08;22.40;99.90
20384;DHT22;46458;50.966;7.002;2022-08-05T07:02:41;22.40;99.90
20384;DHT22;46458;50.966;7.002;2022-08-05T07:05:11;22.40;99.90
20384;DHT22;46458;50.966;7.002;2022-08-05T07:07:42;22.50;99.90
20384;DHT22;46458;50.966;7.002;2022-08-05T07:10:13;22.40;99.90
20384;DHT22;46458;50.966;7.002;2022-08-05T07:12:48;22.50;99.90
20384;DHT22;46458;50.966;7.002;2022-08-05T07:15:33;22.40;99.90
20384;DHT22;46458;50.966;7.002;2022-08-05T07:18:14;22.30;99.90
20384;DHT22;46458;50.966;7.002;2022-08-05T07:20:43;22.60;99.90
20384;DHT22;46458;50.966;7.002;2022-08-05T07:23:16;22.40;99.90
20384;DHT22;46458;50.966;7.002;2022-08-05T07:25:44;22.30;99.90
20384;DHT22;46458;50.966;7.002;2022-08-05T07:28:14;22.50;99.90
20384;DHT22;46458;50.966;7.002;2022-08-05T07:30:43;22.60;99.90
20384;DHT22;46458;50.966;7.002;2022-08-05T07:33:12;22.40;99.90
20384;DHT22;46458;50.966;7.002;2022-08-05T07:35:44;22.50;99.90
20384;DHT22;46458;50.966;7.002;2022-08-05T07:38:17;22.30;99.90
20384;DHT22;46458;50.966;7.002;2022-08-05T07:40:46;22.10;99.90
20384;DHT22;46458;50.966;7.002;2022-08-05T07:43:15;22.10;99.90
20384;DHT22;46458;50.966;7.002;2022-08-05T07:45:47;22.10;99.90
20384;DHT22;46458;50.966;7.002;2022-08-05T07:48:16;22.10;99.90
20384;DHT22;46458;50.966;7.002;2022-08-05T07:50:48;22.10;99.90
20384;DHT22;46458;50.966;7.002;2022-08-05T07:53:19;22.10;99.90
20384;DHT22;46458;50.966;7.002;2022-08-05T07:55:48;22.40;99.90
20384;DHT22;46458;50.966;7.002;2022-08-05T07:58:17;22.10;99.90
20384;DHT22;46458;50.966;7.002;2022-08-05T08:00:49;22.00;99.90
20384;DHT22;46458;50.966;7.002;2022-08-05T08:03:18;22.00;99.90
20384;DHT22;46458;50.966;7.002;2022-08-05T08:05:47;22.10;99.90
20384;DHT22;46458;50.966;7.002;2022-08-05T08:08:19;22.30;99.90
20384;DHT22;46458;50.966;7.002;2022-08-05T08:10:48;21.80;99.90
20384;DHT22;46458;50.966;7.002;2022-08-05T08:13:20;22.20;99.90
20384;DHT22;46458;50.966;7.002;2022-08-05T08:15:49;22.20;99.90
20384;DHT22;46458;50.966;7.002;2022-08-05T08:18:19;21.80;99.90
20384;DHT22;46458;50.966;7.002;2022-08-05T08:20:48;21.90;99.90
20384;DHT22;46458;50.966;7.002;2022-08-05T08:23:29;22.10;99.90
20384;DHT22;46458;50.966;7.002;2022-08-05T08:25:58;21.80;99.90
20384;DHT22;46458;50.966;7.002;2022-08-05T08:28:27;22.00;99.90
20384;DHT22;46458;50.966;7.002;2022-08-05T08:30:59;22.10;99.90
20384;DHT22;46458;50.966;7.002;2022-08-05T08:33:28;21.70;99.90
20384;DHT22;46458;50.966;7.002;2022-08-05T08:35:57;21.60;99.90
20384;DHT22;46458;50.966;7.002;2022-08-05T08:38:26;21.70;99.90
20384;DHT22;46458;50.966;7.002;2022-08-05T08:41:04;21.80;99.90
20384;DHT22;46458;50.966;7.002;2022-08-05T08:43:35;21.60;99.90
20384;DHT22;46458;50.966;7.002;2022-08-05T08:46:05;21.80;99.90
20384;DHT22;46458;50.966;7.002;2022-08-05T08:48:39;21.70;99.90
20384;DHT22;46458;50.966;7.002;2022-08-05T08:51:09;21.70;99.90
20384;DHT22;46458;50.966;7.002;2022-08-05T08:53:38;21.90;99.90
20384;DHT22;46458;50.966;7.002;2022-08-05T08:56:10;21.40;99.90
20384;DHT22;46458;50.966;7.002;2022-08-05T08:58:40;21.50;99.90
20384;DHT22;46458;50.966;7.002;2022-08-05T09:01:10;21.50;99.90
20384;DHT22;46458;50.966;7.002;2022-08-05T09:03:39;21.70;99.90
20384;DHT22;46458;50.966;7.002;2022-08-05T09:06:08;21.40;99.90
20384;DHT22;46458;50.966;7.002;2022-08-05T09:08:37;21.40;99.90
20384;DHT22;46458;50.966;7.002;2022-08-05T09:11:09;21.60;99.90
20384;DHT22;46458;50.966;7.002;2022-08-05T09:13:40;21.30;99.90
20384;DHT22;46458;50.966;7.002;2022-08-05T09:16:12;21.30;99.90
20384;DHT22;46458;50.966;7.002;2022-08-05T09:18:44;21.20;99.90
20384;DHT22;46458;50.966;7.002;2022-08-05T09:21:14;21.70;99.90
20384;DHT22;46458;50.966;7.002;2022-08-05T09:24:01;21.50;99.90
20384;DHT22;46458;50.966;7.002;2022-08-05T09:26:33;21.50;99.90
20384;DHT22;46458;50.966;7.002;2022-08-05T09:29:05;21.50;99.90
20384;DHT22;46458;50.966;7.002;2022-08-05T09:31:34;21.60;99.90
20384;DHT22;46458;50.966;7.002;2022-08-05T09:34:05;21.40;99.90
20384;DHT22;46458;50.966;7.002;2022-08-05T09:36:39;21.40;99.90
20384;DHT22;46458;50.966;7.002;2022-08-05T09:39:10;21.50;99.90
20384;DHT22;46458;50.966;7.002;2022-08-05T09:41:58;21.70;99.90
20384;DHT22;46458;50.966;7.002;2022-08-05T09:44:35;21.40;99.90
20384;DHT22;46458;50.966;7.002;2022-08-05T09:47:09;21.60;99.90
20384;DHT22;46458;50.966;7.002;2022-08-05T09:49:44;21.50;99.90
20384;DHT22;46458;50.966;7.002;2022-08-05T09:52:22;21.50;99.90
20384;DHT22;46458;50.966;7.002;2022-08-05T09:54:52;21.40;99.90
20384;DHT22;46458;50.966;7.002;2022-08-05T09:57:35;21.50;99.90
20384;DHT22;46458;50.966;7.002;2022-08-05T10:00:08;21.70;99.90
20384;DHT22;46458;50.966;7.002;2022-08-05T10:02:40;21.50;99.90
20384;DHT22;46458;50.966;7.002;2022-08-05T10:05:12;21.40;99.90
20384;DHT22;46458;50.966;7.002;2022-08-05T10:07:50;21.70;99.90
20384;DHT22;46458;50.966;7.002;2022-08-05T10:10:24;21.30;99.90
20384;DHT22;46458;50.966;7.002;2022-08-05T10:12:57;21.30;99.90
20384;DHT22;46458;50.966;7.002;2022-08-05T10:15:29;21.70;99.90
20384;DHT22;46458;50.966;7.002;2022-08-05T10:18:10;21.40;99.90
20384;DHT22;46458;50.966;7.002;2022-08-05T10:20:45;21.40;99.90
20384;DHT22;46458;50.966;7.002;2022-08-05T10:23:17;21.40;99.90
20384;DHT22;46458;50.966;7.002;2022-08-05T10:25:49;21.40;99.90
20384;DHT22;46458;50.966;7.002;2022-08-05T10:28:21;21.50;99.90
20384;DHT22;46458;50.966;7.002;2022-08-05T10:30:51;21.80;99.90
20384;DHT22;46458;50.966;7.002;2022-08-05T10:33:21;21.50;99.90
20384;DHT22;46458;50.966;7.002;2022-08-05T10:35:52;21.80;99.90
20384;DHT22;46458;50.966;7.002;2022-08-05T10:38:22;21.60;99.90
20384;DHT22;46458;50.966;7.002;2022-08-05T10:41:00;21.70;99.90
20384;DHT22;46458;50.966;7.002;2022-08-05T10:43:46;21.70;99.90
20384;DHT22;46458;50.966;7.002;2022-08-05T10:46:17;21.80;99.90
20384;DHT22;46458;50.966;7.002;2022-08-05T10:48:49;21.70;99.90
20384;DHT22;46458;50.966;7.002;2022-08-05T10:51:22;21.80;99.90
20384;DHT22;46458;50.966;7.002;2022-08-05T10:53:53;21.70;99.90
20384;DHT22;46458;50.966;7.002;2022-08-05T10:56:23;21.70;99.90
20384;DHT22;46458;50.966;7.002;2022-08-05T10:59:07;21.60;99.90
20384;DHT22;46458;50.966;7.002;2022-08-05T11:01:38;21.90;99.90
20384;DHT22;46458;50.966;7.002;2022-08-05T11:04:13;22.00;99.90
20384;DHT22;46458;50.966;7.002;2022-08-05T11:07:04;21.90;99.90
20384;DHT22;46458;50.966;7.002;2022-08-05T11:09:41;22.10;99.90
20384;DHT22;46458;50.966;7.002;2022-08-05T11:12:41;22.00;99.90
20384;DHT22;46458;50.966;7.002;2022-08-05T11:15:27;22.20;99.90
20384;DHT22;46458;50.966;7.002;2022-08-05T11:18:06;21.50;99.90
20384;DHT22;46458;50.966;7.002;2022-08-05T11:20:41;22.20;99.90
20384;DHT22;46458;50.966;7.002;2022-08-05T11:23:35;22.50;99.90
20384;DHT22;46458;50.966;7.002;2022-08-05T11:26:08;22.90;99.90
20384;DHT22;46458;50.966;7.002;2022-08-05T11:28:43;23.20;99.90
20384;DHT22;46458;50.966;7.002;2022-08-05T11:31:23;23.30;99.90
20384;DHT22;46458;50.966;7.002;2022-08-05T11:34:01;23.50;99.90
20384;DHT22;46458;50.966;7.002;2022-08-05T11:36:53;23.60;99.90
20384;DHT22;46458;50.966;7.002;2022-08-05T11:39:47;23.90;99.90
20384;DHT22;46458;50.966;7.002;2022-08-05T11:42:22;24.00;99.90
20384;DHT22;46458;50.966;7.002;2022-08-05T11:44:54;24.60;99.90
20384;DHT22;46458;50.966;7.002;2022-08-05T11:47:31;24.60;99.90
20384;DHT22;46458;50.966;7.002;2022-08-05T11:50:03;24.30;99.90
20384;DHT22;46458;50.966;7.002;2022-08-05T11:52:32;24.30;99.90
20384;DHT22;46458;50.966;7.002;2022-08-05T11:55:03;24.30;99.90
20384;DHT22;46458;50.966;7.002;2022-08-05T11:57:35;24.40;99.90
20384;DHT22;46458;50.966;7.002;2022-08-05T12:00:05;24.50;99.90
20384;DHT22;46458;50.966;7.002;2022-08-05T12:02:56;24.30;99.90
20384;DHT22;46458;50.966;7.002;2022-08-05T12:05:25;24.30;99.90
20384;DHT22;46458;50.966;7.002;2022-08-05T12:07:59;24.40;99.90
20384;DHT22;46458;50.966;7.002;2022-08-05T12:10:30;24.70;99.90
20384;DHT22;46458;50.966;7.002;2022-08-05T12:13:03;24.70;99.90
20384;DHT22;46458;50.966;7.002;2022-08-05T12:15:33;24.80;99.90
20384;DHT22;46458;50.966;7.002;2022-08-05T12:18:04;24.90;99.90
20384;DHT22;46458;50.966;7.002;2022-08-05T12:20:33;24.90;99.90
20384;DHT22;46458;50.966;7.002;2022-08-05T12:23:09;25.00;99.90
20384;DHT22;46458;50.966;7.002;2022-08-05T12:25:48;25.20;99.90
20384;DHT22;46458;50.966;7.002;2022-08-05T12:28:31;25.40;99.90
20384;DHT22;46458;50.966;7.002;2022-08-05T12:31:00;25.20;99.90
20384;DHT22;46458;50.966;7.002;2022-08-05T12:33:33;25.20;99.90
20384;DHT22;46458;50.966;7.002;2022-08-05T12:36:03;25.10;99.90
20384;DHT22;46458;50.966;7.002;2022-08-05T12:38:33;25.20;99.90
20384;DHT22;46458;50.966;7.002;2022-08-05T12:41:02;25.30;99.90
20384;DHT22;46458;50.966;7.002;2022-08-05T12:43:30;25.30;99.90
20384;DHT22;46458;50.966;7.002;2022-08-05T12:45:59;25.50;99.90
20384;DHT22;46458;50.966;7.002;2022-08-05T12:48:39;25.60;99.90
20384;DHT22;46458;50.966;7.002;2022-08-05T12:51:09;25.60;99.90
20384;DHT22;46458;50.966;7.002;2022-08-05T12:53:43;25.70;99.90
20384;DHT22;46458;50.966;7.002;2022-08-05T12:56:20;25.50;99.90
20384;DHT22;46458;50.966;7.002;2022-08-05T12:59:14;25.50;99.90
20384;DHT22;46458;50.966;7.002;2022-08-05T13:01:44;25.60;99.90
20384;DHT22;46458;50.966;7.002;2022-08-05T13:04:16;25.70;99.90
20384;DHT22;46458;50.966;7.002;2022-08-05T13:06:48;25.70;99.90
20384;DHT22;46458;50.966;7.002;2022-08-05T13:09:17;26.30;99.90
20384;DHT22;46458;50.966;7.002;2022-08-05T13:11:46;26.10;99.90
20384;DHT22;46458;50.966;7.002;2022-08-05T13:14:17;26.40;99.90
20384;DHT22;46458;50.966;7.002;2022-08-05T13:16:56;26.60;99.90
20384;DHT22;46458;50.966;7.002;2022-08-05T13:19:28;26.80;99.90
20384;DHT22;46458;50.966;7.002;2022-08-05T13:21:57;27.20;99.90
20384;DHT22;46458;50.966;7.002;2022-08-05T13:24:26;26.90;99.90
20384;DHT22;46458;50.966;7.002;2022-08-05T13:26:55;26.70;99.90
20384;DHT22;46458;50.966;7.002;2022-08-05T13:29:24;26.30;99.90
20384;DHT22;46458;50.966;7.002;2022-08-05T13:31:52;26.30;99.90
20384;DHT22;46458;50.966;7.002;2022-08-05T13:34:23;26.10;99.90
20384;DHT22;46458;50.966;7.002;2022-08-05T13:36:55;26.00;99.90
20384;DHT22;46458;50.966;7.002;2022-08-05T13:39:25;25.90;99.90
20384;DHT22;46458;50.966;7.002;2022-08-05T13:41:53;25.90;99.90
20384;DHT22;46458;50.966;7.002;2022-08-05T13:44:22;25.80;99.90
20384;DHT22;46458;50.966;7.002;2022-08-05T13:46:51;25.90;99.90
20384;DHT22;46458;50.966;7.002;2022-08-05T13:49:20;26.00;99.90
20384;DHT22;46458;50.966;7.002;2022-08-05T13:51:49;26.10;99.90
20384;DHT22;46458;50.966;7.002;2022-08-05T13:54:22;26.30;99.90
20384;DHT22;46458;50.966;7.002;2022-08-05T13:56:51;26.50;99.90
20384;DHT22;46458;50.966;7.002;2022-08-05T13:59:21;26.60;99.90
20384;DHT22;46458;50.966;7.002;2022-08-05T14:01:51;26.50;99.90
20384;DHT22;46458;50.966;7.002;2022-08-05T14:04:29;26.50;99.90
20384;DHT22;46458;50.966;7.002;2022-08-05T14:07:11;26.50;99.90
20384;DHT22;46458;50.966;7.002;2022-08-05T14:09:44;26.50;99.90
20384;DHT22;46458;50.966;7.002;2022-08-05T14:12:13;26.40;99.90
20384;DHT22;46458;50.966;7.002;2022-08-05T14:14:42;26.30;99.90
20384;DHT22;46458;50.966;7.002;2022-08-05T14:17:11;26.20;99.90
20384;DHT22;46458;50.966;7.002;2022-08-05T14:19:41;26.10;99.90
20384;DHT22;46458;50.966;7.002;2022-08-05T14:22:10;25.90;99.90
20384;DHT22;46458;50.966;7.002;2022-08-05T14:24:39;25.80;99.90
20384;DHT22;46458;50.966;7.002;2022-08-05T14:27:11;25.60;99.90
20384;DHT22;46458;50.966;7.002;2022-08-05T14:29:40;25.50;99.90
20384;DHT22;46458;50.966;7.002;2022-08-05T14:32:09;25.40;99.90
20384;DHT22;46458;50.966;7.002;2022-08-05T14:34:40;25.30;99.90
20384;DHT22;46458;50.966;7.002;2022-08-05T14:37:11;25.00;99.90
20384;DHT22;46458;50.966;7.002;2022-08-05T14:39:43;24.90;99.90
20384;DHT22;46458;50.966;7.002;2022-08-05T14:42:17;24.80;99.90
20384;DHT22;46458;50.966;7.002;2022-08-05T14:44:47;24.70;99.90
20384;DHT22;46458;50.966;7.002;2022-08-05T14:47:16;24.70;99.90
20384;DHT22;46458;50.966;7.002;2022-08-05T14:49:45;24.60;99.90
20384;DHT22;46458;50.966;7.002;2022-08-05T14:52:14;24.60;99.90
20384;DHT22;46458;50.966;7.002;2022-08-05T14:54:44;24.80;99.90
20384;DHT22;46458;50.966;7.002;2022-08-05T14:57:15;25.20;99.90
20384;DHT22;46458;50.966;7.002;2022-08-05T14:59:48;25.60;99.90
20384;DHT22;46458;50.966;7.002;2022-08-05T15:02:17;25.80;99.90
20384;DHT22;46458;50.966;7.002;2022-08-05T15:04:46;26.00;99.90
20384;DHT22;46458;50.966;7.002;2022-08-05T15:07:17;26.00;99.90
20384;DHT22;46458;50.966;7.002;2022-08-05T15:09:46;25.90;99.90
20384;DHT22;46458;50.966;7.002;2022-08-05T15:12:20;25.90;99.90
20384;DHT22;46458;50.966;7.002;2022-08-05T15:14:49;27.10;99.90
20384;DHT22;46458;50.966;7.002;2022-08-05T15:17:19;25.70;99.90
20384;DHT22;46458;50.966;7.002;2022-08-05T15:19:48;25.70;99.90
20384;DHT22;46458;50.966;7.002;2022-08-05T15:22:16;25.60;99.90
20384;DHT22;46458;50.966;7.002;2022-08-05T15:24:45;25.60;99.90
20384;DHT22;46458;50.966;7.002;2022-08-05T15:27:22;25.70;99.90
20384;DHT22;46458;50.966;7.002;2022-08-05T15:29:51;25.90;99.90
20384;DHT22;46458;50.966;7.002;2022-08-05T15:32:23;26.10;99.90
20384;DHT22;46458;50.966;7.002;2022-08-05T15:34:52;26.10;99.90
20384;DHT22;46458;50.966;7.002;2022-08-05T15:37:21;25.90;99.90
20384;DHT22;46458;50.966;7.002;2022-08-05T15:39:52;25.80;99.90
20384;DHT22;46458;50.966;7.002;2022-08-05T15:42:24;25.70;99.90
20384;DHT22;46458;50.966;7.002;2022-08-05T15:44:53;25.70;99.90
20384;DHT22;46458;50.966;7.002;2022-08-05T15:47:22;25.50;99.90
20384;DHT22;46458;50.966;7.002;2022-08-05T15:49:51;25.40;99.90
20384;DHT22;46458;50.966;7.002;2022-08-05T15:52:20;25.40;99.90
20384;DHT22;46458;50.966;7.002;2022-08-05T15:54:51;25.30;99.90
20384;DHT22;46458;50.966;7.002;2022-08-05T15:57:19;25.30;99.90
20384;DHT22;46458;50.966;7.002;2022-08-05T15:59:51;25.30;99.90